Time;durP1;ratioP1;P1;durP2;ratioP2;P2;SDS_P1;SDS_P2;PMS_P1;PMS_P2;Temp;Humidity;BMP_temperature;BMP_pressure;BME280_temperature;BME280_humidity;BME280_pressure;Samples;Min_cycle;Max_cycle;Signal;HPM_P1;HPM_P2
2021/12/04 00:01:26;;;;;;;4.15;2.40;;;;;;;5.22;100.00;99940.13;4954336;28;20073;-50
2021/12/04 00:03:57;;;;;;;4.10;2.30;;;;;;;5.21;100.00;99943.91;4952010;29;20462;-48
2021/12/04 00:06:45;;;;;;;4.80;2.50;;;;;;;5.21;100.00;99930.41;4953392;28;20051;-45
2021/12/04 00:09:32;;;;;;;3.15;2.10;;;;;;;5.18;100.00;99915.53;4952443;28;20055;-46
2021/12/04 00:12:20;;;;;;;3.42;2.13;;;;;;;5.19;100.00;99916.34;4965800;28;20074;-45
2021/12/04 00:15:08;;;;;;;2.45;2.10;;;;;;;5.17;100.00;99910.38;4953133;29;20074;-46
2021/12/04 00:17:57;;;;;;;4.40;2.22;;;;;;;5.30;100.00;99900.00;4953206;29;20039;-45
2021/12/04 00:20:45;;;;;;;4.22;2.60;;;;;;;5.27;100.00;99891.59;4953181;28;20055;-44
2021/12/04 00:23:33;;;;;;;3.38;2.20;;;;;;;5.26;100.00;99896.16;4952549;28;20386;-44
2021/12/04 00:26:20;;;;;;;5.60;2.58;;;;;;;5.27;100.00;99897.00;4953409;29;20102;-46
2021/12/04 00:29:08;;;;;;;3.05;2.30;;;;;;;5.27;100.00;99899.69;4953163;29;20074;-45
2021/12/04 00:32:00;;;;;;;3.78;2.50;;;;;;;5.22;100.00;99897.75;4953884;28;20039;-49
2021/12/04 00:34:54;;;;;;;3.67;2.33;;;;;;;5.20;100.00;99893.69;4953132;28;20055;-48
2021/12/04 00:50:03;;;;;;;5.90;2.90;;;;;;;5.20;100.00;99886.41;4953020;28;20043;-48
2021/12/04 00:52:51;;;;;;;3.50;2.28;;;;;;;5.22;100.00;99891.53;4976854;28;20382;-48
2021/12/04 00:55:39;;;;;;;5.15;2.38;;;;;;;5.19;100.00;99883.94;4952731;29;20106;-49
2021/12/04 00:58:26;;;;;;;3.13;2.10;;;;;;;5.19;100.00;99879.34;4955523;28;20039;-49
2021/12/04 01:01:19;;;;;;;4.03;2.30;;;;;;;5.18;100.00;99880.44;4956190;29;20134;-51
2021/12/04 01:04:16;;;;;;;6.00;2.55;;;;;;;5.19;100.00;99886.63;4957159;28;20486;-53
2021/12/04 01:07:04;;;;;;;4.82;2.30;;;;;;;5.19;100.00;99878.53;4956446;29;20047;-53
2021/12/04 01:09:52;;;;;;;3.92;2.30;;;;;;;5.19;100.00;99889.34;4956669;29;20043;-50
2021/12/04 01:12:40;;;;;;;3.65;1.98;;;;;;;5.24;100.00;99881.28;4956414;29;20483;-53
2021/12/04 01:15:28;;;;;;;4.05;2.13;;;;;;;5.19;100.00;99889.34;4957425;28;20040;-51
2021/12/04 01:18:15;;;;;;;2.45;2.00;;;;;;;5.19;100.00;99889.34;4955819;29;20043;-51
2021/12/04 01:21:03;;;;;;;3.72;2.30;;;;;;;5.20;100.00;99891.00;4956114;29;20055;-51
2021/12/04 01:23:50;;;;;;;2.58;2.20;;;;;;;5.20;100.00;99885.59;4955620;28;20039;-52
2021/12/04 01:26:39;;;;;;;3.90;2.35;;;;;;;5.19;100.00;99889.34;4958485;28;20117;-50
2021/12/04 01:29:26;;;;;;;2.58;2.20;;;;;;;5.22;100.00;99895.06;4955933;28;20062;-50
2021/12/04 01:32:14;;;;;;;4.30;2.20;;;;;;;5.21;100.00;99888.00;4955818;29;20094;-49
2021/12/04 01:35:01;;;;;;;2.53;2.33;;;;;;;5.21;100.00;99888.00;4955810;28;20047;-49
2021/12/04 01:37:49;;;;;;;3.67;2.20;;;;;;;5.21;100.00;99877.22;4945080;29;20047;-50
2021/12/04 01:40:37;;;;;;;3.50;2.30;;;;;;;5.23;100.00;99874.25;4940877;29;20458;-49
2021/12/04 01:43:25;;;;;;;2.92;2.30;;;;;;;5.21;100.00;99863.72;4955525;28;20395;-46
2021/12/04 01:46:12;;;;;;;3.33;2.10;;;;;;;5.21;100.00;99876.41;4946052;28;20070;-52
2021/12/04 01:49:00;;;;;;;3.42;2.00;;;;;;;5.21;100.00;99876.41;4955385;29;20185;-49
2021/12/04 01:51:48;;;;;;;3.30;1.98;;;;;;;5.22;100.00;99883.41;4954746;28;20055;-48
2021/12/04 01:54:36;;;;;;;3.67;2.42;;;;;;;5.20;100.00;99867.50;4954701;29;20047;-49
2021/12/04 01:57:24;;;;;;;3.55;2.05;;;;;;;5.22;100.00;99872.63;4956801;28;20059;-49
2021/12/04 02:00:12;;;;;;;2.60;2.15;;;;;;;5.20;100.00;99864.78;4960192;28;20051;-52
2021/12/04 02:03:03;;;;;;;5.07;2.70;;;;;;;5.19;100.00;99865.84;4955133;28;20126;-53
2021/12/04 02:05:51;;;;;;;4.13;2.60;;;;;;;5.20;100.00;99869.38;4954906;29;20071;-53
2021/12/04 02:08:38;;;;;;;2.47;2.20;;;;;;;5.19;100.00;99865.03;4955840;28;20047;-53
2021/12/04 02:11:26;;;;;;;4.07;2.30;;;;;;;5.20;100.00;99862.09;4955211;29;20457;-49
2021/12/04 02:14:14;;;;;;;3.40;2.50;;;;;;;5.22;100.00;99848.31;4962907;28;20055;-45
2021/12/04 02:17:02;;;;;;;4.95;2.50;;;;;;;5.22;100.00;99848.31;4942134;29;20115;-50
2021/12/04 02:19:50;;;;;;;2.83;2.00;;;;;;;5.23;100.00;99841.88;4955346;28;20135;-52
2021/12/04 02:22:38;;;;;;;2.72;2.25;;;;;;;5.23;100.00;99837.25;4954905;29;20043;-49
2021/12/04 02:25:25;;;;;;;4.03;2.80;;;;;;;5.24;100.00;99816.47;4954533;28;20067;-48
2021/12/04 02:28:13;;;;;;;4.00;2.30;;;;;;;5.22;100.00;99813.22;4954791;28;20063;-50
2021/12/04 02:31:01;;;;;;;4.10;2.58;;;;;;;5.23;100.00;99806.75;4955081;29;20142;-49
2021/12/04 02:33:49;;;;;;;3.13;2.55;;;;;;;5.21;100.00;99800.78;4954624;28;20050;-49
2021/12/04 02:36:30;;;;;;;5.45;2.55;;;;;;;5.20;100.00;99797.28;4953847;29;20039;-50
2021/12/04 02:39:24;;;;;;;3.38;2.58;;;;;;;5.19;100.00;99792.94;4955673;28;20118;-54
2021/12/04 02:42:22;;;;;;;5.40;2.47;;;;;;;5.22;100.00;99794.31;4954745;29;20043;-49
2021/12/04 02:45:11;;;;;;;3.53;2.20;;;;;;;5.23;100.00;99796.75;4956263;28;20056;-50
2021/12/04 02:47:58;;;;;;;4.03;2.67;;;;;;;5.24;100.00;99794.88;4954545;29;20512;-50
2021/12/04 02:50:47;;;;;;;2.55;2.17;;;;;;;5.24;100.00;99784.06;4954740;28;20051;-48
2021/12/04 02:53:34;;;;;;;3.47;2.50;;;;;;;5.24;100.00;99778.66;4948352;29;20051;-48
2021/12/04 02:56:24;;;;;;;3.42;2.40;;;;;;;5.23;100.00;99774.34;4943764;29;20391;-49
2021/12/04 02:59:13;;;;;;;4.45;2.63;;;;;;;5.23;100.00;99774.34;4954496;29;20051;-53
2021/12/04 03:02:00;;;;;;;3.55;2.50;;;;;;;5.24;100.00;99778.66;4955553;28;20122;-52
2021/12/04 03:04:52;;;;;;;4.22;2.58;;;;;;;5.25;100.00;99774.91;4941781;29;20077;-50
2021/12/04 03:07:32;;;;;;;2.63;2.00;;;;;;;5.27;100.00;99786.28;4954415;28;20101;-50
2021/12/04 03:10:21;;;;;;;3.50;2.63;;;;;;;5.26;100.00;99781.94;4955797;28;20046;-52
2021/12/04 03:13:10;;;;;;;4.22;2.58;;;;;;;5.27;100.00;99767.38;4954472;29;20059;-50
2021/12/04 03:15:59;;;;;;;5.78;2.92;;;;;;;5.27;100.00;99770.06;4953737;28;20055;-53
2021/12/04 03:18:47;;;;;;;2.85;2.50;;;;;;;5.27;100.00;99767.38;4946662;28;20055;-52
2021/12/04 03:21:36;;;;;;;4.25;2.70;;;;;;;5.25;100.00;99764.91;4963945;28;20047;-53
2021/12/04 03:24:25;;;;;;;3.08;2.20;;;;;;;5.27;100.00;99760.06;4945614;29;20414;-52
2021/12/04 03:27:14;;;;;;;4.57;2.95;;;;;;;5.28;100.00;99755.47;4940553;29;20055;-47
2021/12/04 03:30:06;;;;;;;3.03;1.95;;;;;;;5.28;100.00;99748.19;4954883;28;20558;-47
2021/12/04 03:41:56;;;;;;;5.40;2.72;;;;;;;5.28;100.00;99736.56;4953465;29;20059;-49
2021/12/04 03:44:43;;;;;;;3.45;2.38;;;;;;;5.28;100.00;99733.88;4951960;29;20047;-47
2021/12/04 03:47:31;;;;;;;4.80;2.42;;;;;;;5.28;100.00;99748.19;4954100;28;20470;-53
2021/12/04 03:50:19;;;;;;;3.45;2.00;;;;;;;5.30;100.00;99742.53;4953379;28;20059;-48
2021/12/04 03:53:07;;;;;;;2.65;2.17;;;;;;;5.30;100.00;99735.25;4941245;29;20482;-50
2021/12/04 03:55:54;;;;;;;3.30;2.05;;;;;;;5.31;100.00;99731.44;4953450;28;20569;-49
2021/12/04 03:58:42;;;;;;;2.80;2.00;;;;;;;5.30;100.00;99729.03;4954878;28;20050;-49
2021/12/04 04:01:29;;;;;;;4.47;2.50;;;;;;;5.30;100.00;99723.63;4952508;29;20125;-49
2021/12/04 04:04:17;;;;;;;3.85;2.40;;;;;;;5.31;100.00;99725.25;4953204;29;20074;-51
2021/12/04 04:07:06;;;;;;;3.72;1.98;;;;;;;5.31;100.00;99725.25;4953683;29;20150;-49
2021/12/04 04:09:53;;;;;;;4.47;2.13;;;;;;;5.30;100.00;99723.63;4953019;28;20071;-50
2021/12/04 04:12:41;;;;;;;2.67;2.03;;;;;;;5.30;100.00;99719.03;4953511;28;20051;-48
2021/12/04 04:15:29;;;;;;;4.95;2.50;;;;;;;5.30;100.00;99720.94;4953153;29;20523;-49
2021/12/04 04:18:16;;;;;;;5.72;2.80;;;;;;;5.28;100.00;99712.25;4952755;28;20043;-50
2021/12/04 04:21:04;;;;;;;3.13;2.20;;;;;;;5.28;100.00;99702.28;4954151;28;20044;-49
2021/12/04 04:23:52;;;;;;;3.85;1.98;;;;;;;5.29;100.00;99705.78;4941444;29;20051;-49
2021/12/04 04:26:40;;;;;;;2.95;2.15;;;;;;;5.29;100.00;99700.38;4953075;29;20063;-50
2021/12/04 04:29:28;;;;;;;3.03;2.03;;;;;;;5.28;100.00;99704.16;4954276;28;20055;-47
2021/12/04 04:32:17;;;;;;;2.40;2.00;;;;;;;5.27;100.00;99705.25;4940606;28;20062;-49
2021/12/04 04:35:17;;;;;;;5.03;1.90;;;;;;;5.28;100.00;99701.47;4956898;29;20047;-48
2021/12/04 04:59:38;;;;;;;2.67;1.60;;;;;;;5.31;100.00;99703.63;4955580;28;20099;-50
2021/12/04 05:10:04;;;;;;;2.42;1.75;;;;;;;5.29;100.00;99711.19;4957474;28;20168;-49
2021/12/04 05:14:52;;;;;;;1.40;1.30;;;;;;;5.27;100.00;99691.75;4965743;28;20490;-46
2021/12/04 05:20:39;;;;;;;1.35;1.30;;;;;;;5.25;100.00;99683.09;4960087;28;20062;-49
2021/12/04 05:23:27;;;;;;;1.65;1.55;;;;;;;5.26;100.00;99673.91;4956836;28;20110;-50
2021/12/04 05:26:34;;;;;;;1.77;1.38;;;;;;;5.27;100.00;99676.34;4956339;29;20051;-49
2021/12/04 05:29:22;;;;;;;3.83;1.40;;;;;;;5.28;100.00;99663.66;4955652;28;20118;-49
2021/12/04 05:32:10;;;;;;;2.10;1.55;;;;;;;5.27;100.00;99665.56;4959983;28;20051;-49
2021/12/04 05:34:58;;;;;;;1.85;1.73;;;;;;;5.29;100.00;99666.09;4956013;29;20058;-52
2021/12/04 05:37:46;;;;;;;1.63;1.52;;;;;;;5.24;100.00;99665.25;4955729;29;20063;-48
2021/12/04 05:40:35;;;;;;;1.42;1.33;;;;;;;5.24;100.00;99659.84;4943890;29;20089;-49
2021/12/04 05:43:24;;;;;;;2.38;1.30;;;;;;;5.25;100.00;99667.69;4955651;28;20051;-46
2021/12/04 05:46:14;;;;;;;2.50;1.67;;;;;;;5.22;100.00;99667.38;4955574;28;20411;-49
2021/12/04 05:49:09;;;;;;;2.55;1.85;;;;;;;5.17;100.00;99670.91;4955055;29;20047;-50
2021/12/04 05:55:24;;;;;;;1.85;1.70;;;;;;;5.14;100.00;99668.69;4956731;28;20162;-47
2021/12/04 05:58:03;;;;;;;2.13;1.90;;;;;;;5.18;100.00;99671.72;4954669;29;20114;-48
2021/12/04 06:00:51;;;;;;;1.98;1.88;;;;;;;5.22;100.00;99670.09;4955217;29;20063;-51
2021/12/04 06:03:39;;;;;;;2.45;1.73;;;;;;;5.24;100.00;99667.94;4954715;29;20047;-51
2021/12/04 06:06:27;;;;;;;2.72;1.70;;;;;;;5.24;100.00;99666.09;4956349;28;20059;-48
2021/12/04 06:09:14;;;;;;;2.88;1.73;;;;;;;5.27;100.00;99659.34;4954604;29;20055;-54
2021/12/04 06:12:04;;;;;;;1.92;1.70;;;;;;;5.30;100.00;99665.03;4954878;29;20059;-51
2021/12/04 06:14:52;;;;;;;2.65;1.90;;;;;;;5.30;100.00;99658.81;4953097;28;20417;-51
2021/12/04 06:17:40;;;;;;;2.75;1.38;;;;;;;5.31;100.00;99657.72;4955235;28;20074;-53
2021/12/04 06:23:34;;;;;;;2.13;1.83;;;;;;;5.32;100.00;99659.38;4986157;28;20453;-50
2021/12/04 06:26:21;;;;;;;2.15;2.00;;;;;;;5.30;100.00;99656.13;4955051;28;20505;-49
2021/12/04 06:29:09;;;;;;;2.47;1.90;;;;;;;5.28;100.00;99650.97;4955004;28;20043;-51
2021/12/04 06:31:56;;;;;;;2.03;1.92;;;;;;;5.29;100.00;99651.75;4954848;28;20058;-48
2021/12/04 06:34:44;;;;;;;2.55;1.92;;;;;;;5.30;100.00;99642.59;4955516;28;20142;-50
2021/12/04 06:37:31;;;;;;;3.88;1.80;;;;;;;5.31;100.00;99644.22;4954807;28;20518;-48
2021/12/04 06:40:23;;;;;;;2.63;2.05;;;;;;;5.32;100.00;99635.88;4954292;28;20561;-51
2021/12/04 06:43:11;;;;;;;3.75;1.92;;;;;;;5.34;100.00;99649.13;4953880;28;20051;-47
2021/12/04 06:46:03;;;;;;;2.65;2.15;;;;;;;5.34;100.00;99654.53;4955658;28;20055;-50
2021/12/04 06:51:49;;;;;;;2.33;2.13;;;;;;;5.34;100.00;99643.72;4954349;29;20081;-52
2021/12/04 06:54:39;;;;;;;2.80;1.67;;;;;;;5.36;100.00;99646.13;4955159;28;20063;-48
2021/12/04 06:57:29;;;;;;;2.78;1.83;;;;;;;5.36;100.00;99644.25;4953879;28;20051;-47
2021/12/04 07:00:17;;;;;;;2.58;1.90;;;;;;;5.37;100.00;99643.19;4954350;29;20074;-51
2021/12/04 07:03:04;;;;;;;2.53;1.98;;;;;;;5.35;100.00;99639.94;4954088;28;20069;-49
2021/12/04 07:05:52;;;;;;;2.15;2.00;;;;;;;5.35;100.00;99653.44;4955835;28;20350;-49
2021/12/04 07:08:40;;;;;;;4.22;2.10;;;;;;;5.33;100.00;99664.50;4948287;28;20051;-47
2021/12/04 07:11:28;;;;;;;2.88;2.13;;;;;;;5.31;100.00;99655.81;4947750;28;20047;-49
2021/12/04 07:14:15;;;;;;;2.60;2.10;;;;;;;5.32;100.00;99660.16;4953342;28;20043;-52
2021/12/04 07:17:04;;;;;;;2.75;2.17;;;;;;;5.33;100.00;99644.78;4276478;28;9999955;-48
2021/12/04 07:19:52;;;;;;;3.10;2.20;;;;;;;5.34;100.00;99641.00;4951299;29;20062;-48
2021/12/04 07:22:39;;;;;;;2.90;2.50;;;;;;;5.33;100.00;99647.47;4955762;28;20114;-50
2021/12/04 07:25:27;;;;;;;3.17;2.47;;;;;;;5.31;100.00;99644.22;4951107;29;20055;-48
2021/12/04 07:28:15;;;;;;;3.28;2.60;;;;;;;5.31;100.00;99636.13;4951268;29;20054;-49
2021/12/04 07:31:04;;;;;;;3.95;2.72;;;;;;;5.31;100.00;99638.81;4951358;29;20450;-49
2021/12/04 07:33:51;;;;;;;7.15;2.80;;;;;;;5.29;100.00;99638.25;4950230;28;20051;-46
2021/12/04 07:36:39;;;;;;;5.00;2.85;;;;;;;5.30;100.00;99646.13;4951353;28;20043;-49
2021/12/04 07:39:27;;;;;;;8.48;3.20;;;;;;;5.31;100.00;99649.63;4950603;29;20051;-52
2021/12/04 07:42:14;;;;;;;7.05;3.88;;;;;;;5.23;100.00;99642.03;4950884;29;20051;-48
2021/12/04 07:45:03;;;;;;;4.28;3.05;;;;;;;5.20;100.00;99647.97;4948470;29;20071;-53
2021/12/04 07:47:51;;;;;;;6.13;3.10;;;;;;;5.19;100.00;99646.31;4951299;29;20470;-48
2021/12/04 07:50:39;;;;;;;5.65;3.42;;;;;;;5.15;100.00;99634.41;4945119;29;20047;-49
2021/12/04 07:53:26;;;;;;;5.68;3.22;;;;;;;5.13;100.00;99635.50;4950220;29;20326;-49
2021/12/04 07:56:15;;;;;;;5.57;3.35;;;;;;;5.14;100.00;99639.00;4939325;29;20062;-50
2021/12/04 07:59:03;;;;;;;5.15;3.22;;;;;;;5.18;100.00;99639.31;4950818;29;20089;-50
2021/12/04 08:01:51;;;;;;;5.65;3.47;;;;;;;5.19;100.00;99632.81;4954720;28;20063;-49
2021/12/04 08:04:39;;;;;;;6.43;3.40;;;;;;;5.19;100.00;99625.53;4940520;29;20054;-52
2021/12/04 08:07:26;;;;;;;4.68;3.20;;;;;;;5.23;100.00;99632.03;4950576;29;20493;-47
2021/12/04 08:10:16;;;;;;;5.88;3.28;;;;;;;5.23;100.00;99632.03;4949704;29;20093;-48
2021/12/04 08:13:04;;;;;;;5.07;3.40;;;;;;;5.23;100.00;99620.44;4950899;28;20047;-50
2021/12/04 08:15:52;;;;;;;6.30;3.88;;;;;;;5.22;100.00;99632.28;4950191;28;20051;-50
2021/12/04 08:18:40;;;;;;;4.68;3.40;;;;;;;5.22;100.00;99630.41;4950917;29;20170;-49
2021/12/04 08:21:27;;;;;;;5.63;3.55;;;;;;;5.22;100.00;99624.19;4950622;29;20059;-52
2021/12/04 08:24:15;;;;;;;5.00;3.53;;;;;;;5.21;100.00;99625.28;4950245;29;20054;-48
2021/12/04 08:27:03;;;;;;;6.63;3.67;;;;;;;5.19;100.00;99620.13;4950126;29;20055;-50
2021/12/04 08:29:51;;;;;;;6.68;3.20;;;;;;;5.18;100.00;99609.59;4949390;29;20035;-47
2021/12/04 08:32:39;;;;;;;4.55;3.38;;;;;;;5.16;100.00;99595.53;4948105;29;20501;-47
2021/12/04 08:35:15;;;;;;;7.18;3.40;;;;;;;5.16;100.00;99593.66;4946173;28;20838;-44
2021/12/04 08:38:03;;;;;;;5.57;3.33;;;;;;;5.20;100.00;99596.66;4951632;28;20051;-49
2021/12/04 08:40:52;;;;;;;5.32;3.03;;;;;;;5.21;100.00;99587.47;4950071;29;20062;-46
2021/12/04 08:43:39;;;;;;;4.78;3.30;;;;;;;5.23;100.00;99586.13;4950544;28;20137;-45
2021/12/04 08:46:27;;;;;;;5.57;3.47;;;;;;;5.24;100.00;99582.38;4950668;29;20051;-46
2021/12/04 08:49:15;;;;;;;4.10;2.97;;;;;;;5.26;100.00;99582.09;4949944;29;20066;-49
2021/12/04 08:52:04;;;;;;;5.13;3.20;;;;;;;5.26;100.00;99565.88;4949882;28;20047;-45
2021/12/04 08:54:52;;;;;;;7.68;3.22;;;;;;;5.27;100.00;99570.22;4950197;28;20054;-48
2021/12/04 08:57:40;;;;;;;5.10;3.03;;;;;;;5.26;100.00;99565.88;4951297;28;20047;-49
2021/12/04 09:00:39;;;;;;;5.50;3.25;;;;;;;5.26;100.00;99555.88;4952612;29;20066;-48
2021/12/04 09:03:32;;;;;;;6.82;3.20;;;;;;;5.28;100.00;99564.53;4952417;29;20551;-49
2021/12/04 09:06:22;;;;;;;6.40;3.30;;;;;;;5.30;100.00;99561.59;4951778;29;20086;-48
2021/12/04 09:09:12;;;;;;;7.30;4.35;;;;;;;5.30;100.00;99554.28;4956099;28;20053;-50
2021/12/04 09:12:03;;;;;;;5.40;3.10;;;;;;;5.30;100.00;99553.47;4952375;29;20059;-50
2021/12/04 09:14:51;;;;;;;6.13;3.40;;;;;;;5.29;100.00;99551.84;4952372;28;20541;-48
2021/12/04 09:17:39;;;;;;;6.80;3.20;;;;;;;5.29;100.00;99565.34;4952387;28;20445;-50
2021/12/04 09:20:29;;;;;;;7.85;3.28;;;;;;;5.30;100.00;99573.19;4943755;29;20526;-51
2021/12/04 09:23:19;;;;;;;4.88;3.13;;;;;;;5.31;100.00;99568.59;4955350;29;20055;-53
2021/12/04 09:26:12;;;;;;;7.60;3.80;;;;;;;5.32;100.00;99562.94;4955178;28;20067;-50
2021/12/04 10:02:56;;;;;;;7.97;3.30;;;;;;;5.42;100.00;99508.16;4965030;28;20120;-50
2021/12/04 10:12:00;;;;;;;6.95;3.30;;;;;;;5.44;100.00;99514.09;4952640;28;20051;-51
2021/12/04 10:33:42;;;;;;;7.38;3.70;;;;;;;5.55;100.00;99488.72;4952121;28;20055;-51
2021/12/04 10:36:38;;;;;;;7.72;3.70;;;;;;;5.61;100.00;99488.75;4954371;28;20098;-45
2021/12/04 10:39:26;;;;;;;8.27;4.10;;;;;;;5.72;100.00;99482.25;4952257;28;20055;-47
2021/12/04 10:42:18;;;;;;;7.43;4.05;;;;;;;5.75;100.00;99481.72;4958196;28;20130;-49
2021/12/04 10:45:09;;;;;;;6.53;3.72;;;;;;;5.69;100.00;99489.00;4952380;28;20047;-52
2021/12/04 10:48:03;;;;;;;6.18;3.60;;;;;;;5.65;100.00;99479.00;4954170;28;20041;-48
2021/12/04 10:51:19;;;;;;;5.85;3.40;;;;;;;5.64;100.00;99464.69;4952479;28;20446;-47
2021/12/04 10:54:27;;;;;;;7.25;3.60;;;;;;;5.60;100.00;99455.47;4954332;28;20055;-49
2021/12/04 10:57:55;;;;;;;6.38;3.85;;;;;;;5.57;100.00;99447.94;4957442;28;20090;-46
2021/12/04 11:03:43;;;;;;;7.55;3.58;;;;;;;5.57;100.00;99444.41;4944270;29;20138;-50
2021/12/04 11:28:42;;;;;;;7.03;3.95;;;;;;;5.69;100.00;99402.53;4893795;29;20044;-50
2021/12/04 11:47:07;;;;;;;6.68;4.00;;;;;;;5.76;100.00;99386.06;4837855;29;20053;-50
2021/12/04 11:49:54;;;;;;;6.78;4.47;;;;;;;5.75;100.00;99390.66;4837854;29;20133;-49
2021/12/04 11:52:53;;;;;;;7.72;3.60;;;;;;;5.77;100.00;99387.66;4837373;29;20053;-53
2021/12/04 11:55:44;;;;;;;8.20;4.40;;;;;;;5.78;100.00;99383.09;4834460;29;20064;-54
2021/12/04 11:58:39;;;;;;;7.00;4.07;;;;;;;5.77;100.00;99382.25;4847850;29;20072;-49
2021/12/04 12:01:33;;;;;;;8.82;5.28;;;;;;;5.76;100.00;99376.03;4886251;29;20060;-51
2021/12/04 12:04:41;;;;;;;7.28;4.70;;;;;;;5.70;100.00;99377.16;4893518;29;20048;-52
2021/12/04 12:07:32;;;;;;;7.95;4.40;;;;;;;5.70;100.00;99381.72;4893054;29;20460;-50
2021/12/04 12:10:21;;;;;;;7.20;4.18;;;;;;;5.69;100.00;99367.41;4884930;29;20112;-54
2021/12/04 12:13:16;;;;;;;6.43;3.53;;;;;;;5.84;100.00;99369.28;4892258;29;20056;-48
2021/12/04 12:16:18;;;;;;;5.40;3.38;;;;;;;5.87;100.00;99360.63;4889881;29;20049;-50
2021/12/04 12:19:15;;;;;;;6.05;3.85;;;;;;;5.85;100.00;99349.28;4895476;29;20515;-49
2021/12/04 12:22:10;;;;;;;9.10;4.88;;;;;;;5.83;100.00;99356.84;4949438;29;20043;-50
2021/12/04 12:25:14;;;;;;;;;;;;;;;5.84;100.00;99344.94;4953113;29;20126;-51
2021/12/04 12:37:28;;;;;;;7.97;4.60;;;;;;;5.84;100.00;99338.75;4949832;28;20059;-48
2021/12/04 12:40:19;;;;;;;6.50;4.47;;;;;;;5.80;100.00;99330.38;4953002;28;20055;-48
2021/12/04 12:43:20;;;;;;;8.85;4.50;;;;;;;5.79;100.00;99334.16;4952447;29;20078;-50
2021/12/04 12:46:08;;;;;;;6.82;3.58;;;;;;;5.82;100.00;99336.34;4949797;29;20054;-48
2021/12/04 12:48:55;;;;;;;6.97;4.40;;;;;;;5.89;100.00;99336.03;4939654;29;20079;-44
2021/12/04 12:51:51;;;;;;;5.28;3.00;;;;;;;5.88;100.00;99337.94;4951400;28;20663;-49
2021/12/04 12:54:41;;;;;;;8.63;4.60;;;;;;;5.92;100.00;99336.31;4953446;28;20055;-49
2021/12/04 12:57:38;;;;;;;8.25;4.60;;;;;;;5.91;100.00;99331.97;4954772;29;20365;-47
2021/12/04 13:12:23;;;;;;;6.75;4.13;;;;;;;5.87;100.00;99330.06;4957065;28;20106;-50
2021/12/04 13:15:11;;;;;;;6.68;3.80;;;;;;;5.85;100.00;99338.47;4954503;29;20043;-51
2021/12/04 13:18:09;;;;;;;5.70;3.92;;;;;;;5.84;100.00;99339.53;4955573;29;20051;-49
2021/12/04 13:21:07;;;;;;;6.72;3.70;;;;;;;5.86;100.00;99337.38;4959710;28;20059;-48
2021/12/04 13:23:57;;;;;;;5.93;3.08;;;;;;;6.21;100.00;99333.00;4272809;28;10000601;-50
2021/12/04 13:26:47;;;;;;;5.68;3.40;;;;;;;6.20;100.00;99328.66;4950469;28;20446;-51
2021/12/04 13:29:41;;;;;;;7.40;3.50;;;;;;;6.17;100.00;99331.94;4952290;28;20047;-48
2021/12/04 13:32:35;;;;;;;6.15;3.55;;;;;;;6.11;100.00;99323.03;4958919;28;20090;-48
2021/12/04 13:35:24;;;;;;;8.13;3.20;;;;;;;6.20;100.00;99323.25;4949055;28;20842;-48
2021/12/04 13:38:15;;;;;;;4.25;3.05;;;;;;;6.20;100.00;99315.16;4948125;28;20054;-48
2021/12/04 13:41:03;;;;;;;7.85;4.13;;;;;;;6.09;100.00;99313.59;4957337;28;20138;-50
2021/12/04 13:43:52;;;;;;;6.10;3.80;;;;;;;6.00;100.00;99312.53;4958101;28;20058;-49
2021/12/04 13:46:48;;;;;;;5.25;3.65;;;;;;;5.95;100.00;99316.84;4954883;28;20055;-47
2021/12/04 13:49:38;;;;;;;;;;;;;;;5.93;100.00;99327.09;4944638;28;20063;-49
2021/12/04 13:52:28;;;;;;;5.60;3.58;;;;;;;5.95;100.00;99324.16;4949316;28;19978;-50
2021/12/04 13:55:18;;;;;;;5.10;3.28;;;;;;;6.00;100.00;99324.16;4946434;28;20055;-49
2021/12/04 13:58:06;;;;;;;6.13;3.53;;;;;;;6.09;100.00;99319.78;4949000;28;20063;-51
2021/12/04 14:00:54;;;;;;;5.97;3.50;;;;;;;6.08;100.00;99322.75;4951504;28;20051;-49
2021/12/04 14:03:42;;;;;;;6.60;3.33;;;;;;;6.08;100.00;99315.44;4951639;28;20063;-48
2021/12/04 14:06:30;;;;;;;4.85;3.20;;;;;;;6.10;100.00;99315.19;4947594;29;20062;-47
2021/12/04 14:09:18;;;;;;;7.32;4.00;;;;;;;6.15;100.00;99323.28;4952262;29;20143;-54
2021/12/04 14:12:12;;;;;;;6.03;4.22;;;;;;;6.11;100.00;99322.19;4951655;29;20055;-52
2021/12/04 14:15:06;;;;;;;7.40;4.40;;;;;;;6.06;100.00;99324.94;4941096;29;20114;-54
2021/12/04 14:18:09;;;;;;;7.50;4.65;;;;;;;6.05;100.00;99324.13;4952577;29;20066;-51
2021/12/04 14:21:00;;;;;;;8.02;4.65;;;;;;;6.08;100.00;99317.34;4946406;29;20128;-45
2021/12/04 14:23:49;;;;;;;9.00;5.55;;;;;;;6.03;100.00;99322.78;4964215;28;20039;-53
2021/12/04 14:26:36;;;;;;;9.07;5.85;;;;;;;6.01;100.00;99317.63;4965857;28;20047;-49
2021/12/04 14:29:27;;;;;;;13.77;8.27;;;;;;;6.00;100.00;99317.94;4953895;29;20083;-48
2021/12/04 14:32:10;;;;;;;13.50;8.73;;;;;;;5.96;100.00;99315.78;4954251;29;20047;-49
2021/12/04 14:35:00;;;;;;;9.65;6.97;;;;;;;5.97;100.00;99317.38;4956191;28;20051;-50
2021/12/04 14:37:53;;;;;;;6.47;4.63;;;;;;;6.00;100.00;99328.75;4954857;28;20058;-49
2021/12/04 14:40:43;;;;;;;9.85;6.10;;;;;;;6.01;100.00;99328.44;4971040;28;20167;-50
2021/12/04 14:43:35;;;;;;;8.73;5.65;;;;;;;6.03;100.00;99322.78;4958448;28;20066;-50
2021/12/04 14:46:24;;;;;;;7.38;5.00;;;;;;;6.04;100.00;99330.63;4954770;28;20468;-52
2021/12/04 14:49:13;;;;;;;12.80;5.47;;;;;;;6.05;100.00;99337.63;4943289;29;20359;-48
2021/12/04 14:52:01;;;;;;;8.75;5.70;;;;;;;6.05;100.00;99343.06;4964368;28;20167;-49
2021/12/04 14:54:49;;;;;;;8.70;5.82;;;;;;;6.06;100.00;99341.16;4933938;29;20067;-48
2021/12/04 14:57:42;;;;;;;9.38;5.63;;;;;;;6.05;100.00;99353.06;4956958;28;20149;-47
2021/12/04 15:00:33;;;;;;;8.00;4.90;;;;;;;6.05;100.00;99355.78;4954487;29;20054;-48
2021/12/04 15:03:30;;;;;;;8.48;5.35;;;;;;;6.02;100.00;99359.81;4955576;28;20051;-49
2021/12/04 15:06:22;;;;;;;8.40;4.88;;;;;;;6.00;100.00;99366.59;4954630;28;20059;-49
2021/12/04 15:09:11;;;;;;;7.70;5.05;;;;;;;5.97;100.00;99381.47;4953537;28;20063;-49
2021/12/04 15:12:01;;;;;;;6.20;3.88;;;;;;;5.92;100.00;99382.25;4954107;28;20055;-49
2021/12/04 15:14:48;;;;;;;6.50;4.35;;;;;;;5.85;100.00;99391.72;4952960;28;20055;-49
2021/12/04 15:17:36;;;;;;;7.57;3.80;;;;;;;5.79;100.00;99400.91;4958277;28;20506;-51
2021/12/04 15:20:48;;;;;;;5.25;3.28;;;;;;;5.74;100.00;99399.81;4954129;28;20514;-45
2021/12/04 15:23:37;;;;;;;6.93;3.47;;;;;;;5.71;100.00;99400.38;4941139;28;20106;-50
2021/12/04 15:26:25;;;;;;;4.53;3.00;;;;;;;5.69;100.00;99407.13;4953169;28;20043;-50
2021/12/04 15:29:22;;;;;;;7.20;3.28;;;;;;;5.67;100.00;99402.00;4953999;28;20071;-51
2021/12/04 15:32:13;;;;;;;6.15;3.28;;;;;;;5.64;100.00;99409.84;4955344;28;20077;-50
2021/12/04 15:35:01;;;;;;;6.18;3.03;;;;;;;5.64;100.00;99415.25;4952703;29;20462;-47
2021/12/04 15:37:59;;;;;;;6.03;3.50;;;;;;;5.65;100.00;99414.16;4956927;28;20047;-49
2021/12/04 15:41:02;;;;;;;5.70;3.28;;;;;;;5.63;100.00;99419.00;4953787;28;20051;-50
2021/12/04 15:47:39;;;;;;;4.90;2.92;;;;;;;5.62;100.00;99433.63;4913472;29;20435;-51
2021/12/04 15:53:55;;;;;;;4.93;2.92;;;;;;;5.65;100.00;99449.28;4890445;29;20079;-50
2021/12/04 15:56:48;;;;;;;6.20;3.20;;;;;;;5.65;100.00;99460.09;4904565;29;20119;-52
2021/12/04 15:59:36;;;;;;;6.13;3.05;;;;;;;5.66;100.00;99462.53;4913098;29;20055;-50
2021/12/04 16:02:32;;;;;;;7.35;3.25;;;;;;;5.65;100.00;99457.38;4899986;29;20163;-50
2021/12/04 16:05:22;;;;;;;6.45;3.10;;;;;;;5.66;100.00;99467.13;4912585;29;20052;-49
2021/12/04 16:08:15;;;;;;;6.32;3.03;;;;;;;5.69;100.00;99469.28;4910390;29;20056;-49
2021/12/04 16:11:22;;;;;;;4.88;2.72;;;;;;;5.71;100.00;99459.81;4912941;29;20511;-50
2021/12/04 16:14:11;;;;;;;5.85;2.90;;;;;;;5.74;100.00;99466.59;4899667;29;20056;-48
2021/12/04 16:16:59;;;;;;;17.17;10.68;;;;;;;5.75;100.00;99479.03;4912298;29;20511;-50
2021/12/04 16:19:50;;;;;;;7.45;3.08;;;;;;;5.76;100.00;99483.34;4899604;29;20487;-48
2021/12/04 16:22:40;;;;;;;6.30;2.70;;;;;;;5.74;100.00;99482.78;4921467;29;20086;-50
2021/12/04 16:25:37;;;;;;;6.57;2.85;;;;;;;5.75;100.00;99489.84;4953423;28;20129;-48
2021/12/04 16:37:29;;;;;;;7.80;3.33;;;;;;;5.83;100.00;99507.41;4915892;29;20072;-49
2021/12/04 16:40:23;;;;;;;7.40;3.20;;;;;;;5.81;100.00;99510.38;4914480;29;20522;-50
2021/12/04 16:43:17;;;;;;;5.93;3.10;;;;;;;5.83;100.00;99519.03;4918698;29;20051;-49